Time;durP1;ratioP1;P1;durP2;ratioP2;P2;SDS_P1;SDS_P2;PMS_P1;PMS_P2;Temp;Humidity;BMP_temperature;BMP_pressure;BME280_temperature;BME280_humidity;BME280_pressure;Samples;Min_cycle;Max_cycle;Signal;HPM_P1;HPM_P2
2022/07/02 00:01:23;;;;;;;6.20;2.13;;;16.90;63.60;;;;;;9179836;19;20049;-66
2022/07/02 00:04:30;;;;;;;4.55;2.25;;;16.90;63.80;;;;;;9178241;19;20078;-66
2022/07/02 00:07:36;;;;;;;10.13;2.67;;;16.90;63.80;;;;;;9185316;19;20341;-66
2022/07/02 00:10:41;;;;;;;5.60;2.17;;;16.80;63.80;;;;;;9188622;19;20020;-66
2022/07/02 00:13:46;;;;;;;5.10;2.25;;;16.80;63.90;;;;;;9186843;19;20029;-66
2022/07/02 00:16:55;;;;;;;6.80;2.92;;;16.80;64.00;;;;;;9182011;19;20078;-66
2022/07/02 00:20:01;;;;;;;6.22;2.85;;;16.70;64.10;;;;;;9186777;19;20505;-66
2022/07/02 00:23:07;;;;;;;8.15;2.58;;;16.70;64.10;;;;;;9189034;19;20028;-66
2022/07/02 00:26:20;;;;;;;5.32;2.25;;;16.70;64.20;;;;;;9186686;19;20661;-66
2022/07/02 00:29:35;;;;;;;4.13;2.70;;;16.60;64.40;;;;;;9187315;19;20020;-66
2022/07/02 00:32:45;;;;;;;4.22;2.50;;;16.60;64.40;;;;;;9186968;19;20014;-66
2022/07/02 00:35:50;;;;;;;8.20;2.60;;;16.50;64.50;;;;;;9186772;19;20018;-66
2022/07/02 00:38:55;;;;;;;7.55;2.80;;;16.50;64.50;;;;;;9182972;19;20025;-66
2022/07/02 00:42:02;;;;;;;6.05;2.80;;;16.50;64.60;;;;;;9185410;19;20026;-66
2022/07/02 00:45:08;;;;;;;8.30;2.78;;;16.40;64.60;;;;;;9186103;19;20018;-66
2022/07/02 00:48:17;;;;;;;5.35;2.55;;;16.40;64.70;;;;;;9187448;19;20011;-65
2022/07/02 00:51:22;;;;;;;6.70;2.90;;;16.40;64.90;;;;;;9186183;19;20014;-66
2022/07/02 00:54:27;;;;;;;5.03;2.90;;;16.30;64.80;;;;;;9187184;19;20024;-66
2022/07/02 00:57:34;;;;;;;8.13;2.33;;;16.40;64.90;;;;;;9183573;19;20022;-65
2022/07/02 01:00:39;;;;;;;5.40;2.83;;;16.30;65.00;;;;;;9185412;19;20023;-66
2022/07/02 01:03:49;;;;;;;4.82;2.67;;;16.30;65.00;;;;;;9185232;19;20048;-66
2022/07/02 01:06:55;;;;;;;5.47;2.70;;;16.20;65.10;;;;;;9184456;19;20049;-67
2022/07/02 01:13:22;;;;;;;4.90;2.92;;;16.20;65.30;;;;;;9185271;19;20345;-66
2022/07/02 01:16:27;;;;;;;7.53;2.70;;;16.10;65.20;;;;;;9182250;19;20026;-66
2022/07/02 01:19:36;;;;;;;6.75;3.17;;;16.10;65.30;;;;;;9183280;19;20014;-65
2022/07/02 01:22:44;;;;;;;8.45;2.70;;;16.10;65.50;;;;;;9184272;19;24342;-66
2022/07/02 01:25:53;;;;;;;4.18;2.40;;;16.10;65.60;;;;;;9183787;19;20014;-65
2022/07/02 01:28:58;;;;;;;5.35;3.10;;;16.00;65.60;;;;;;9184612;19;20018;-66
2022/07/02 01:32:04;;;;;;;7.18;3.28;;;16.00;65.70;;;;;;9186156;19;20018;-65
2022/07/02 01:35:11;;;;;;;6.68;3.10;;;16.00;65.70;;;;;;9184082;19;20022;-66
2022/07/02 01:38:18;;;;;;;6.30;2.78;;;16.00;65.80;;;;;;9183025;19;20030;-66
2022/07/02 01:44:42;;;;;;;8.10;3.25;;;16.00;65.90;;;;;;9183243;19;20111;-65
2022/07/02 01:47:48;;;;;;;4.40;2.63;;;15.90;65.90;;;;;;9183290;19;20373;-66
2022/07/02 01:50:52;;;;;;;6.63;2.83;;;15.90;66.00;;;;;;9183774;19;20015;-66
2022/07/02 01:54:00;;;;;;;5.13;2.83;;;15.90;66.00;;;;;;9183012;19;20022;-65
2022/07/02 01:57:06;;;;;;;7.35;3.08;;;15.90;66.10;;;;;;9182853;19;20048;-65
2022/07/02 02:00:14;;;;;;;6.80;3.15;;;15.90;66.10;;;;;;9183103;19;20018;-65
2022/07/02 02:03:19;;;;;;;6.45;2.88;;;15.80;66.20;;;;;;9182909;19;20018;-66
2022/07/02 02:06:24;;;;;;;6.30;2.83;;;15.80;66.20;;;;;;9182006;19;20033;-66
2022/07/02 02:09:32;;;;;;;5.45;2.95;;;15.80;66.20;;;;;;9182959;19;20486;-66
2022/07/02 02:12:37;;;;;;;7.10;3.00;;;15.80;66.30;;;;;;9182829;19;20019;-66
2022/07/02 02:15:42;;;;;;;8.95;3.33;;;15.80;66.30;;;;;;9179725;19;20130;-66
2022/07/02 02:18:47;;;;;;;8.32;2.90;;;15.70;66.40;;;;;;9172604;19;20368;-66
2022/07/02 02:21:52;;;;;;;6.35;2.80;;;15.70;66.40;;;;;;9177902;19;20019;-66
2022/07/02 02:25:00;;;;;;;5.20;2.75;;;15.70;66.40;;;;;;9177195;19;20018;-66
2022/07/02 02:28:05;;;;;;;4.40;2.58;;;15.70;66.60;;;;;;9177235;19;20445;-66
2022/07/02 02:31:10;;;;;;;7.47;2.85;;;15.60;66.50;;;;;;9177590;19;20023;-65
2022/07/02 02:34:15;;;;;;;3.70;3.00;;;15.60;66.60;;;;;;9174754;19;20033;-66
2022/07/02 02:37:20;;;;;;;3.83;2.70;;;15.60;66.60;;;;;;9175917;19;20018;-65
2022/07/02 02:40:28;;;;;;;5.53;3.00;;;15.60;66.70;;;;;;9177179;19;20029;-65
2022/07/02 02:43:33;;;;;;;8.63;3.58;;;15.50;66.80;;;;;;9175442;19;20014;-65
2022/07/02 02:46:38;;;;;;;10.57;3.20;;;15.50;66.80;;;;;;9178068;19;20019;-65
2022/07/02 02:49:43;;;;;;;6.80;3.08;;;15.50;66.90;;;;;;9175225;19;20022;-65
2022/07/02 02:52:48;;;;;;;5.53;3.22;;;15.40;66.90;;;;;;9176230;19;20014;-66
2022/07/02 02:55:56;;;;;;;7.70;3.00;;;15.40;66.90;;;;;;9175894;19;20022;-65
2022/07/02 02:59:01;;;;;;;5.60;2.90;;;15.40;67.00;;;;;;9174744;19;20014;-66
2022/07/02 03:02:07;;;;;;;6.40;3.53;;;15.40;67.00;;;;;;9175877;19;20011;-65
2022/07/02 03:05:12;;;;;;;16.85;3.92;;;15.40;67.20;;;;;;9173480;19;20018;-65
2022/07/02 03:08:17;;;;;;;5.20;3.03;;;15.40;67.20;;;;;;9174757;19;20113;-65
2022/07/02 03:11:25;;;;;;;5.35;3.28;;;15.40;67.20;;;;;;9176438;19;20018;-65
2022/07/02 03:14:30;;;;;;;7.65;3.38;;;15.40;67.30;;;;;;9177751;19;20372;-66
2022/07/02 03:17:38;;;;;;;5.97;3.72;;;15.30;67.20;;;;;;9170057;19;20086;-65
2022/07/02 03:20:43;;;;;;;5.63;3.60;;;15.30;67.20;;;;;;9177728;19;20022;-66
2022/07/02 03:23:48;;;;;;;7.47;3.83;;;15.30;67.30;;;;;;9174209;19;20022;-66
2022/07/02 03:26:55;;;;;;;7.25;3.65;;;15.30;67.40;;;;;;9173662;19;20056;-66
2022/07/02 03:30:01;;;;;;;6.82;4.10;;;15.30;67.50;;;;;;9174006;19;20022;-65
2022/07/02 03:33:06;;;;;;;9.57;4.25;;;15.30;67.50;;;;;;9174278;19;20018;-65
2022/07/02 03:36:11;;;;;;;7.63;4.03;;;15.20;67.50;;;;;;9176034;19;20025;-65
2022/07/02 03:39:16;;;;;;;5.45;3.85;;;15.20;67.50;;;;;;9173449;19;20022;-65
2022/07/02 03:42:24;;;;;;;7.25;4.20;;;15.20;67.60;;;;;;9179102;19;20501;-65
2022/07/02 03:45:29;;;;;;;10.07;4.13;;;15.20;67.70;;;;;;9184365;19;20022;-66
2022/07/02 03:48:34;;;;;;;7.85;3.67;;;15.20;67.70;;;;;;9184578;19;20022;-65
2022/07/02 03:51:39;;;;;;;9.48;4.15;;;15.10;67.70;;;;;;9184298;19;20025;-66
2022/07/02 03:54:45;;;;;;;10.48;4.22;;;15.10;67.80;;;;;;9185732;19;20014;-66
2022/07/02 03:57:52;;;;;;;10.23;4.00;;;15.10;67.80;;;;;;9184129;19;20018;-65
2022/07/02 04:00:57;;;;;;;6.75;3.70;;;15.10;68.00;;;;;;9183934;19;20019;-65
2022/07/02 04:04:03;;;;;;;7.93;4.13;;;15.10;68.00;;;;;;9182035;19;20364;-66
2022/07/02 04:07:08;;;;;;;8.55;3.50;;;15.10;68.00;;;;;;9183573;19;20015;-65
2022/07/02 04:10:13;;;;;;;10.05;3.85;;;15.10;68.10;;;;;;9182195;19;20019;-66
2022/07/02 04:13:20;;;;;;;7.10;3.60;;;15.10;68.10;;;;;;9183606;19;20038;-65
2022/07/02 04:16:25;;;;;;;10.75;3.67;;;15.10;68.20;;;;;;9180452;19;20019;-65
2022/07/02 04:19:31;;;;;;;7.53;4.10;;;15.10;68.20;;;;;;9183479;19;20462;-65
2022/07/02 04:22:36;;;;;;;7.95;3.85;;;15.10;68.30;;;;;;9184373;19;20053;-67
2022/07/02 04:25:42;;;;;;;9.43;4.32;;;15.20;68.40;;;;;;9183981;19;20057;-65
2022/07/02 04:28:49;;;;;;;5.65;3.33;;;15.10;68.40;;;;;;9180968;19;20033;-65
2022/07/02 04:31:54;;;;;;;7.57;3.90;;;15.20;68.60;;;;;;9184668;19;20022;-65
2022/07/02 04:34:59;;;;;;;7.28;3.38;;;15.20;68.60;;;;;;9183788;19;20019;-65
2022/07/02 04:38:05;;;;;;;10.63;3.75;;;15.20;68.70;;;;;;9181866;19;20025;-65
2022/07/02 04:41:10;;;;;;;6.28;3.58;;;15.20;68.70;;;;;;9182217;19;20019;-65
2022/07/02 04:44:17;;;;;;;13.10;3.85;;;15.20;68.70;;;;;;9181605;19;20023;-65
2022/07/02 04:47:22;;;;;;;11.38;3.75;;;15.20;68.90;;;;;;9181976;19;20627;-65
2022/07/02 04:50:27;;;;;;;10.38;4.03;;;15.20;68.80;;;;;;9185852;19;20033;-65
2022/07/02 04:53:32;;;;;;;8.50;3.85;;;15.20;68.90;;;;;;9185414;19;20029;-64
2022/07/02 04:56:37;;;;;;;10.85;4.82;;;15.30;68.90;;;;;;9185974;19;20018;-65
2022/07/02 04:59:45;;;;;;;14.65;3.78;;;15.30;69.00;;;;;;9184997;19;20036;-65
2022/07/02 05:02:50;;;;;;;11.68;3.85;;;15.30;69.10;;;;;;9182102;19;20010;-65
2022/07/02 05:05:55;;;;;;;7.82;3.72;;;15.30;69.70;;;;;;9176841;19;20014;-65
2022/07/02 05:09:00;;;;;;;12.45;4.15;;;15.30;69.20;;;;;;9182013;19;20026;-65
2022/07/02 05:12:06;;;;;;;7.80;3.55;;;15.40;69.30;;;;;;9182305;19;20052;-65
2022/07/02 05:15:14;;;;;;;6.40;3.78;;;15.40;69.30;;;;;;9178521;19;20030;-68
2022/07/02 05:18:19;;;;;;;6.28;3.90;;;15.40;69.40;;;;;;9176751;19;20026;-65
2022/07/02 05:21:24;;;;;;;9.68;3.88;;;15.40;69.40;;;;;;9185046;19;20054;-69
2022/07/02 05:24:29;;;;;;;6.68;4.07;;;15.50;69.70;;;;;;9182831;19;20475;-67
2022/07/02 05:27:36;;;;;;;10.30;3.80;;;15.50;69.60;;;;;;9179392;19;20986;-69
2022/07/02 05:30:44;;;;;;;9.55;4.30;;;15.50;69.60;;;;;;9181404;19;20014;-67
2022/07/02 05:33:50;;;;;;;9.52;4.63;;;15.60;70.40;;;;;;9178785;19;20483;-66
2022/07/02 05:36:57;;;;;;;9.98;4.25;;;15.60;69.70;;;;;;9182985;19;20472;-67
2022/07/02 05:40:10;;;;;;;14.77;3.78;;;15.60;69.80;;;;;;9182505;19;20011;-65
2022/07/02 05:43:17;;;;;;;11.77;4.80;;;15.80;70.00;;;;;;9183100;19;20030;-67
2022/07/02 05:46:25;;;;;;;6.28;3.95;;;15.90;70.10;;;;;;9184143;19;20094;-68
2022/07/02 05:49:30;;;;;;;8.25;3.85;;;16.00;70.10;;;;;;9185791;19;20018;-66
2022/07/02 05:52:35;;;;;;;9.05;3.90;;;16.10;70.00;;;;;;9183959;19;20022;-66
2022/07/02 05:55:40;;;;;;;11.80;4.18;;;16.30;70.00;;;;;;9184047;19;20011;-68
2022/07/02 05:58:45;;;;;;;12.95;3.25;;;16.50;70.10;;;;;;9184903;19;20026;-66
2022/07/02 06:01:53;;;;;;;11.18;3.53;;;16.70;70.00;;;;;;9182896;19;20613;-67
2022/07/02 06:04:58;;;;;;;7.05;3.97;;;16.90;69.90;;;;;;9179617;19;20014;-68
2022/07/02 06:08:00;;;;;;;9.32;3.10;;;17.10;69.70;;;;;;9182432;19;20368;-68
2022/07/02 06:11:06;;;;;;;8.10;3.10;;;17.30;69.50;;;;;;9182523;19;20006;-68
2022/07/02 06:14:11;;;;;;;11.68;3.28;;;17.50;69.40;;;;;;9182701;19;20015;-68
2022/07/02 06:17:18;;;;;;;6.78;2.83;;;17.70;69.20;;;;;;9178347;19;20007;-68
2022/07/02 06:20:23;;;;;;;7.57;3.40;;;17.90;69.00;;;;;;9181071;19;20029;-68
2022/07/02 06:23:35;;;;;;;12.82;3.00;;;18.10;68.80;;;;;;9183777;19;20026;-69
2022/07/02 06:26:40;;;;;;;7.15;3.15;;;18.30;68.70;;;;;;9182212;19;20019;-67
2022/07/02 06:29:47;;;;;;;6.00;2.88;;;18.50;68.50;;;;;;9181544;19;20104;-68
2022/07/02 06:32:55;;;;;;;7.70;3.05;;;18.70;68.40;;;;;;9183248;19;20030;-67
2022/07/02 06:36:07;;;;;;;10.18;3.63;;;18.90;68.30;;;;;;9182117;19;20014;-67
2022/07/02 06:39:12;;;;;;;10.00;3.28;;;19.10;68.20;;;;;;9182561;19;20015;-69
2022/07/02 06:42:23;;;;;;;8.18;2.78;;;19.30;68.00;;;;;;9182088;19;20014;-69
2022/07/02 06:45:31;;;;;;;9.88;3.63;;;19.50;67.80;;;;;;9182036;19;20017;-68
2022/07/02 06:48:39;;;;;;;7.50;2.40;;;19.70;67.60;;;;;;9181772;19;20007;-68
2022/07/02 06:51:44;;;;;;;10.68;2.55;;;19.80;67.40;;;;;;9181826;19;20023;-67
2022/07/02 06:54:49;;;;;;;8.10;2.83;;;20.00;67.30;;;;;;9180981;19;20395;-66
2022/07/02 06:57:54;;;;;;;10.52;2.53;;;20.20;67.10;;;;;;9181696;19;20023;-66
2022/07/02 07:01:00;;;;;;;7.13;2.75;;;20.40;67.00;;;;;;9180739;19;20018;-67
2022/07/02 07:04:07;;;;;;;5.05;2.30;;;20.60;66.80;;;;;;9182096;19;20021;-66
2022/07/02 07:07:12;;;;;;;6.97;2.00;;;20.80;66.50;;;;;;9180106;19;20078;-67
2022/07/02 07:10:17;;;;;;;6.95;2.03;;;21.00;66.20;;;;;;9180168;19;20372;-68
2022/07/02 07:13:22;;;;;;;10.50;2.47;;;21.20;65.90;;;;;;9182644;19;20011;-66
2022/07/02 07:16:27;;;;;;;6.65;1.95;;;21.40;65.70;;;;;;9174457;19;20475;-68
2022/07/02 07:19:35;;;;;;;3.35;1.50;;;21.50;65.30;;;;;;9180040;19;20015;-68
2022/07/02 07:22:40;;;;;;;5.07;1.45;;;21.70;65.00;;;;;;9181529;19;20037;-67
2022/07/02 07:25:45;;;;;;;5.35;1.58;;;21.90;64.70;;;;;;9180770;19;20025;-69
2022/07/02 07:28:50;;;;;;;1.55;1.08;;;22.10;64.40;;;;;;9180339;19;20023;-67
2022/07/02 07:31:55;;;;;;;16.48;2.75;;;22.20;63.90;;;;;;9181147;19;20467;-68
2022/07/02 07:35:02;;;;;;;3.80;1.15;;;22.40;63.60;;;;;;9179820;19;20015;-69
2022/07/02 07:38:08;;;;;;;8.65;1.33;;;22.60;63.30;;;;;;9179368;19;20086;-68
2022/07/02 07:41:13;;;;;;;6.30;1.20;;;22.70;63.10;;;;;;9179271;19;20020;-66
2022/07/02 07:44:18;;;;;;;5.20;1.00;;;22.80;62.70;;;;;;9179948;19;20341;-67
2022/07/02 07:47:23;;;;;;;5.82;0.98;;;23.00;62.40;;;;;;9180057;19;20010;-67
2022/07/02 07:50:31;;;;;;;2.50;1.23;;;23.10;62.20;;;;;;9177565;19;20007;-66
2022/07/02 07:53:36;;;;;;;6.18;1.08;;;23.20;61.90;;;;;;9178797;19;20641;-65
2022/07/02 07:56:43;;;;;;;4.85;0.95;;;23.30;61.60;;;;;;9179468;19;20457;-67
2022/07/02 07:59:48;;;;;;;5.28;1.33;;;23.40;61.30;;;;;;9178673;19;20018;-69
2022/07/02 08:02:53;;;;;;;4.30;1.08;;;23.60;61.20;;;;;;9177681;19;20019;-69
2022/07/02 08:06:01;;;;;;;8.27;1.10;;;23.70;61.00;;;;;;9177898;19;20018;-68
2022/07/02 08:09:06;;;;;;;9.82;3.88;;;23.80;60.70;;;;;;9180322;19;20475;-70
2022/07/02 08:12:11;;;;;;;7.63;1.55;;;23.90;60.60;;;;;;9178928;19;20022;-66
2022/07/02 08:15:16;;;;;;;2.90;0.70;;;24.00;60.30;;;;;;9177357;19;20383;-68
2022/07/02 08:18:21;;;;;;;2.35;0.73;;;24.20;60.00;;;;;;9175432;19;20018;-68
2022/07/02 08:21:29;;;;;;;4.60;1.23;;;24.30;59.70;;;;;;9177444;19;20014;-66
2022/07/02 08:24:34;;;;;;;3.63;0.90;;;24.40;59.30;;;;;;9178053;19;20403;-67
2022/07/02 08:27:40;;;;;;;11.00;1.08;;;24.50;59.20;;;;;;9182506;19;20966;-72
2022/07/02 08:30:45;;;;;;;5.13;1.20;;;24.60;59.00;;;;;;9185639;19;20011;-72
2022/07/02 08:33:50;;;;;;;8.55;0.80;;;24.80;58.70;;;;;;9187110;19;20014;-71
2022/07/02 08:36:59;;;;;;;3.97;1.05;;;24.90;58.40;;;;;;9187000;19;20011;-72
2022/07/02 08:40:05;;;;;;;5.07;0.70;;;25.00;58.00;;;;;;9187708;19;20021;-71
2022/07/02 08:43:10;;;;;;;5.82;1.05;;;25.10;57.90;;;;;;9185639;19;20113;-70
2022/07/02 08:46:17;;;;;;;6.43;1.63;;;25.20;57.80;;;;;;9185143;19;20021;-73
2022/07/02 08:49:23;;;;;;;2.85;0.95;;;25.30;57.60;;;;;;9186620;19;20018;-72
2022/07/02 08:52:31;;;;;;;2.97;0.68;;;25.50;57.40;;;;;;9184431;19;20010;-71
2022/07/02 08:55:38;;;;;;;4.10;0.95;;;25.60;57.10;;;;;;9186331;19;20321;-72
2022/07/02 08:58:44;;;;;;;5.40;0.90;;;25.70;57.10;;;;;;9188394;19;20023;-72
2022/07/02 09:01:50;;;;;;;2.92;1.00;;;25.80;56.90;;;;;;9184677;19;20436;-71
2022/07/02 09:05:00;;;;;;;2.88;0.75;;;25.90;56.70;;;;;;9182831;19;20014;-71
2022/07/02 09:08:10;;;;;;;3.85;0.80;;;26.00;56.50;;;;;;9185615;19;20010;-72
2022/07/02 09:11:16;;;;;;;2.17;1.05;;;26.10;56.30;;;;;;9184930;19;20025;-71
2022/07/02 09:14:25;;;;;;;4.15;0.90;;;26.10;56.20;;;;;;9185869;19;20029;-71
2022/07/02 09:17:33;;;;;;;2.15;0.85;;;26.30;56.00;;;;;;9182124;19;20022;-70
2022/07/02 09:20:38;;;;;;;3.67;1.08;;;26.30;56.00;;;;;;9184411;19;20011;-71
2022/07/02 09:23:55;;;;;;;4.38;1.00;;;26.40;55.70;;;;;;9185428;19;20017;-70
2022/07/02 09:27:07;;;;;;;2.53;1.02;;;26.50;55.10;;;;;;9183358;19;20019;-71
2022/07/02 09:30:14;;;;;;;8.32;1.25;;;26.40;55.10;;;;;;9186593;19;20388;-71
2022/07/02 09:33:31;;;;;;;4.45;1.23;;;26.50;55.10;;;;;;9186825;19;20014;-69
2022/07/02 09:36:38;;;;;;;21.45;2.08;;;26.50;55.00;;;;;;9184338;19;20876;-71
2022/07/02 09:39:47;;;;;;;3.30;0.95;;;26.60;55.10;;;;;;9183616;19;20024;-70
2022/07/02 09:42:52;;;;;;;3.50;0.70;;;26.60;54.80;;;;;;9182060;19;20472;-71
2022/07/02 09:45:57;;;;;;;6.20;1.10;;;26.70;54.80;;;;;;9184238;19;20021;-70
2022/07/02 09:49:11;;;;;;;3.70;1.08;;;26.80;54.70;;;;;;9184569;19;20014;-70
2022/07/02 09:52:17;;;;;;;6.05;1.00;;;26.90;54.30;;;;;;9184555;19;20029;-70
2022/07/02 09:55:27;;;;;;;6.15;0.70;;;27.00;54.40;;;;;;9184645;19;20115;-71
2022/07/02 09:58:32;;;;;;;3.45;0.88;;;27.00;54.10;;;;;;9183751;19;20018;-69
2022/07/02 10:01:46;;;;;;;5.50;0.98;;;27.10;54.10;;;;;;9183768;19;20023;-71
2022/07/02 10:04:53;;;;;;;3.97;1.42;;;27.20;53.70;;;;;;9183003;19;20341;-74
2022/07/02 10:08:01;;;;;;;2.78;0.80;;;27.30;53.90;;;;;;9185283;19;20463;-72
2022/07/02 10:11:10;;;;;;;2.20;0.70;;;27.30;53.60;;;;;;9185401;19;20034;-72
2022/07/02 10:14:18;;;;;;;2.78;0.77;;;27.40;53.50;;;;;;9184354;19;20017;-71
2022/07/02 10:17:23;;;;;;;1.95;0.68;;;27.40;53.40;;;;;;9180280;19;20014;-71
2022/07/02 10:20:30;;;;;;;6.18;1.02;;;27.50;53.40;;;;;;9184033;19;20057;-70
2022/07/02 10:23:37;;;;;;;3.92;0.73;;;27.50;53.10;;;;;;9180722;19;20023;-72
2022/07/02 10:26:45;;;;;;;5.18;0.85;;;27.60;52.90;;;;;;9182324;19;20356;-69
2022/07/02 10:29:51;;;;;;;4.97;0.88;;;27.70;52.80;;;;;;9184353;19;20935;-69
2022/07/02 10:33:05;;;;;;;2.25;0.70;;;27.80;52.60;;;;;;9182192;19;20029;-72
2022/07/02 10:36:13;;;;;;;2.25;0.63;;;27.90;52.30;;;;;;9182527;19;20026;-71
2022/07/02 10:39:19;;;;;;;5.57;0.88;;;27.90;52.20;;;;;;9183462;19;20018;-70
2022/07/02 10:42:39;;;;;;;1.83;0.70;;;28.00;52.00;;;;;;9181399;19;20019;-71
2022/07/02 10:45:44;;;;;;;2.17;0.70;;;28.10;51.50;;;;;;9183526;19;20014;-73
2022/07/02 10:48:51;;;;;;;2.08;0.73;;;28.10;51.80;;;;;;9183277;19;20472;-69
2022/07/02 10:51:59;;;;;;;3.85;0.70;;;28.10;51.50;;;;;;9183082;19;20018;-71
2022/07/02 10:55:04;;;;;;;3.17;0.98;;;28.20;51.40;;;;;;9182932;19;20021;-71
2022/07/02 10:58:20;;;;;;;2.42;0.80;;;28.10;51.30;;;;;;9182467;19;20688;-69
2022/07/02 11:01:27;;;;;;;1.88;0.80;;;28.20;50.80;;;;;;9182455;19;20384;-74
2022/07/02 11:04:32;;;;;;;5.75;0.80;;;28.20;51.00;;;;;;9180665;19;20022;-75
2022/07/02 11:07:45;;;;;;;1.90;0.70;;;28.20;50.70;;;;;;9181555;19;20010;-75
2022/07/02 11:10:51;;;;;;;3.70;0.82;;;28.20;50.50;;;;;;9181350;19;20014;-73
2022/07/02 11:14:03;;;;;;;3.95;0.63;;;28.20;50.60;;;;;;9182424;19;20018;-71
2022/07/02 11:17:11;;;;;;;1.80;0.77;;;28.20;50.30;;;;;;9176735;19;20050;-66
2022/07/02 11:20:16;;;;;;;1.90;0.60;;;28.30;51.20;;;;;;9179205;19;20018;-69
2022/07/02 11:23:22;;;;;;;1.05;0.32;;;28.30;50.30;;;;;;9178275;19;20021;-70
2022/07/02 11:26:28;;;;;;;1.75;0.57;;;28.30;50.20;;;;;;9180459;19;20021;-73
2022/07/02 11:29:38;;;;;;;1.80;0.63;;;28.40;50.10;;;;;;9180717;19;20015;-68
2022/07/02 11:32:43;;;;;;;4.45;0.82;;;28.40;49.90;;;;;;9180738;19;21597;-71
2022/07/02 11:35:53;;;;;;;2.42;0.70;;;28.50;50.10;;;;;;9181392;19;20022;-68
2022/07/02 11:38:59;;;;;;;2.35;0.65;;;28.50;49.80;;;;;;9180102;19;20018;-70
2022/07/02 11:42:04;;;;;;;2.75;0.65;;;28.50;49.70;;;;;;9181012;19;20018;-69
2022/07/02 11:45:12;;;;;;;5.60;0.77;;;28.60;49.40;;;;;;9179971;19;20038;-68
2022/07/02 11:48:23;;;;;;;2.65;0.80;;;28.60;49.30;;;;;;9177151;19;20018;-69
2022/07/02 11:51:28;;;;;;;3.20;0.60;;;28.50;49.40;;;;;;9177298;19;20010;-69
2022/07/02 11:54:34;;;;;;;2.88;0.43;;;28.50;49.20;;;;;;9178744;19;20025;-68
2022/07/02 11:57:39;;;;;;;0.82;0.43;;;28.50;49.10;;;;;;9177632;19;20018;-68
2022/07/02 12:00:49;;;;;;;2.22;0.60;;;28.50;49.10;;;;;;9180817;19;20018;-68
2022/07/02 12:04:00;;;;;;;2.50;0.68;;;28.50;49.00;;;;;;9182357;19;20471;-68
2022/07/02 12:07:06;;;;;;;6.07;1.00;;;28.40;48.80;;;;;;9188118;19;20500;-69
2022/07/02 12:10:13;;;;;;;3.15;0.93;;;28.40;49.00;;;;;;9189660;19;20011;-69
2022/07/02 12:13:18;;;;;;;2.95;0.90;;;28.40;48.90;;;;;;9188449;19;20018;-69
2022/07/02 12:16:28;;;;;;;4.47;0.70;;;28.40;48.80;;;;;;9182041;19;20022;-69
2022/07/02 12:19:35;;;;;;;2.10;0.40;;;28.40;48.60;;;;;;9187520;19;20402;-69
2022/07/02 12:22:44;;;;;;;2.78;0.73;;;28.40;48.80;;;;;;9185480;19;20015;-71
2022/07/02 12:25:51;;;;;;;4.38;0.70;;;28.40;48.70;;;;;;9187606;19;20026;-69
2022/07/02 12:32:19;;;;;;;1.00;0.38;;;28.50;48.40;;;;;;9188851;19;20045;-69
2022/07/02 12:35:25;;;;;;;1.17;0.52;;;28.50;48.20;;;;;;9187532;19;20102;-70
2022/07/02 12:38:30;;;;;;;3.00;0.75;;;28.50;48.30;;;;;;9187427;19;20010;-69
2022/07/02 12:41:39;;;;;;;5.35;0.85;;;28.50;48.20;;;;;;9187080;19;20018;-67
2022/07/02 12:44:57;;;;;;;3.50;0.40;;;28.40;47.90;;;;;;9183320;19;20357;-68
2022/07/02 12:48:06;;;;;;;1.75;0.60;;;28.40;47.70;;;;;;9186228;19;20010;-67
2022/07/02 12:51:12;;;;;;;1.95;0.77;;;28.40;47.80;;;;;;9186604;19;20018;-67
2022/07/02 12:54:23;;;;;;;7.28;1.00;;;28.30;47.80;;;;;;9188700;19;20022;-68
2022/07/02 12:57:45;;;;;;;2.00;0.80;;;28.20;47.90;;;;;;9187446;19;20015;-68
2022/07/02 13:00:51;;;;;;;2.10;0.60;;;28.20;47.70;;;;;;9188948;19;20462;-67
2022/07/02 13:03:59;;;;;;;4.47;0.90;;;28.10;47.70;;;;;;9184558;19;20378;-69
2022/07/02 13:07:04;;;;;;;2.80;0.88;;;28.10;47.80;;;;;;9185345;19;20349;-68
2022/07/02 13:10:12;;;;;;;2.33;0.70;;;27.90;47.60;;;;;;9189391;19;20022;-68
2022/07/02 13:13:17;;;;;;;3.08;0.90;;;27.90;47.60;;;;;;9182321;19;20034;-68
2022/07/02 13:16:22;;;;;;;1.33;0.57;;;27.80;47.70;;;;;;9180884;19;20089;-67
2022/07/02 13:19:30;;;;;;;10.50;0.90;;;27.70;47.80;;;;;;9185762;19;20527;-66
2022/07/02 13:22:35;;;;;;;2.92;0.57;;;27.80;47.90;;;;;;9184287;19;20102;-68
2022/07/02 13:25:41;;;;;;;3.47;0.65;;;27.80;47.80;;;;;;9184808;19;20026;-65
2022/07/02 13:28:46;;;;;;;1.13;0.40;;;27.80;48.20;;;;;;9186784;19;20025;-66
2022/07/02 13:31:51;;;;;;;2.92;0.50;;;27.90;47.70;;;;;;9183556;19;20010;-67
2022/07/02 13:34:59;;;;;;;2.58;0.85;;;28.00;47.70;;;;;;9187043;19;20102;-68
2022/07/02 13:38:04;;;;;;;2.22;0.68;;;28.00;47.50;;;;;;9185045;19;20030;-69
2022/07/02 13:41:09;;;;;;;2.28;0.57;;;28.00;48.10;;;;;;9185302;19;20014;-67
2022/07/02 13:44:14;;;;;;;3.03;0.95;;;28.10;47.50;;;;;;9184634;19;20015;-70
2022/07/02 13:47:19;;;;;;;3.25;0.80;;;28.10;47.40;;;;;;9185650;19;20104;-67
2022/07/02 13:50:27;;;;;;;0.68;0.50;;;28.10;47.30;;;;;;9185774;19;20014;-73
2022/07/02 13:53:32;;;;;;;2.40;0.50;;;28.20;47.20;;;;;;9183365;19;20052;-72
2022/07/02 13:56:37;;;;;;;1.42;0.45;;;28.20;47.40;;;;;;9179483;19;20018;-72
2022/07/02 13:59:45;;;;;;;1.85;0.70;;;28.30;47.30;;;;;;9179376;19;20486;-70
2022/07/02 14:02:53;;;;;;;3.53;1.00;;;28.30;47.20;;;;;;9175179;19;20021;-71
2022/07/02 14:06:01;;;;;;;1.95;0.80;;;28.40;47.10;;;;;;9177559;19;20014;-72
2022/07/02 14:09:06;;;;;;;2.13;0.50;;;28.40;46.90;;;;;;9175302;19;20019;-70
2022/07/02 14:12:12;;;;;;;3.13;0.70;;;28.40;46.90;;;;;;9175891;19;20360;-72
2022/07/02 14:15:18;;;;;;;1.60;0.50;;;28.40;46.80;;;;;;9177232;19;20049;-74
2022/07/02 14:18:23;;;;;;;3.05;0.52;;;28.40;46.90;;;;;;9171455;19;20025;-73
2022/07/02 14:21:31;;;;;;;5.05;0.75;;;28.30;46.80;;;;;;9175700;19;21193;-72
2022/07/02 14:24:36;;;;;;;1.30;0.63;;;28.30;46.60;;;;;;9174263;19;20018;-75
2022/07/02 14:27:41;;;;;;;1.95;0.63;;;28.20;46.60;;;;;;9177401;19;20093;-74
2022/07/02 14:30:47;;;;;;;1.60;0.50;;;28.20;46.70;;;;;;9175211;19;20435;-74
2022/07/02 14:33:52;;;;;;;2.70;0.55;;;28.10;46.60;;;;;;9176798;19;20011;-71
2022/07/02 14:37:00;;;;;;;1.88;1.08;;;28.10;46.60;;;;;;9176521;19;20042;-66
2022/07/02 14:40:06;;;;;;;2.55;1.30;;;28.00;46.50;;;;;;9173686;19;20641;-67
2022/07/02 14:43:11;;;;;;;2.97;0.93;;;28.00;46.50;;;;;;9173786;19;20034;-67
2022/07/02 14:46:16;;;;;;;3.90;0.70;;;28.00;46.60;;;;;;9172223;19;20027;-64
2022/07/02 14:49:21;;;;;;;2.00;0.65;;;28.00;46.60;;;;;;9173888;19;20015;-68
2022/07/02 14:52:29;;;;;;;3.28;0.45;;;28.00;46.60;;;;;;9173305;19;20022;-68
2022/07/02 14:55:34;;;;;;;1.85;0.68;;;28.00;46.60;;;;;;9172972;19;20022;-70
2022/07/02 14:58:39;;;;;;;1.77;0.70;;;28.00;46.60;;;;;;9171611;19;20018;-68
2022/07/02 15:01:45;;;;;;;4.25;0.77;;;28.00;46.40;;;;;;9174246;19;20388;-68
2022/07/02 15:04:50;;;;;;;7.07;0.93;;;28.00;46.40;;;;;;9172973;19;20022;-70
2022/07/02 15:07:58;;;;;;;4.93;1.17;;;28.00;46.50;;;;;;9172237;19;20006;-67
2022/07/02 15:11:03;;;;;;;10.55;0.65;;;28.00;46.40;;;;;;9177891;19;20046;-66
2022/07/02 15:17:31;;;;;;;2.65;0.68;;;27.90;46.40;;;;;;9172896;19;20022;-69
2022/07/02 15:20:45;;;;;;;1.08;0.60;;;27.90;46.30;;;;;;9172433;19;20468;-69
2022/07/02 15:23:56;;;;;;;2.70;1.33;;;27.90;46.20;;;;;;9170644;19;20038;-67
2022/07/02 15:27:07;;;;;;;1.30;0.47;;;27.90;46.30;;;;;;9172877;19;20022;-66
2022/07/02 15:30:15;;;;;;;3.88;0.60;;;27.90;46.20;;;;;;9170765;19;20014;-65
2022/07/02 15:33:20;;;;;;;1.27;0.52;;;27.80;46.40;;;;;;9169679;19;20672;-66
2022/07/02 15:36:25;;;;;;;1.98;0.85;;;27.70;46.40;;;;;;9170906;19;20019;-66
2022/07/02 15:39:34;;;;;;;1.85;0.95;;;27.70;46.40;;;;;;9171770;19;20020;-68
2022/07/02 15:42:39;;;;;;;7.75;1.10;;;27.70;46.40;;;;;;9170405;19;20017;-67
2022/07/02 15:45:45;;;;;;;2.08;0.70;;;27.60;46.50;;;;;;9167991;19;20357;-66
2022/07/02 15:48:51;;;;;;;1.27;0.60;;;27.60;46.50;;;;;;9171147;19;20014;-68
2022/07/02 15:51:58;;;;;;;2.55;0.90;;;27.60;46.50;;;;;;9169572;19;20086;-68
2022/07/02 15:55:12;;;;;;;1.63;0.43;;;27.50;46.40;;;;;;9172066;19;21101;-68
2022/07/02 15:58:24;;;;;;;1.80;0.70;;;27.50;46.30;;;;;;9169313;19;20025;-68
2022/07/02 16:01:30;;;;;;;2.58;0.63;;;27.50;46.30;;;;;;9168821;19;20026;-68
2022/07/02 16:04:37;;;;;;;4.90;1.27;;;27.50;46.30;;;;;;9171528;19;20094;-66
2022/07/02 16:07:49;;;;;;;3.50;0.70;;;27.50;46.20;;;;;;9169218;19;20064;-69
2022/07/02 16:10:56;;;;;;;6.82;0.60;;;27.50;46.20;;;;;;9179344;19;20025;-67
2022/07/02 16:14:02;;;;;;;2.30;0.60;;;27.50;46.30;;;;;;9178229;19;20792;-67
2022/07/02 16:17:08;;;;;;;2.75;0.70;;;27.40;46.30;;;;;;9174077;19;20014;-67
2022/07/02 16:20:15;;;;;;;2.85;0.50;;;27.40;46.30;;;;;;9179368;19;20010;-68
2022/07/02 16:23:20;;;;;;;3.85;0.63;;;27.40;46.30;;;;;;9179836;19;20464;-68